sensor_id;sensor_type;location;lat;lon;timestamp;temperature;humidity
20574;DHT22;10445;50.216;7.912;2022-11-14T00:00:48;5.50;64.70
20574;DHT22;10445;50.216;7.912;2022-11-14T00:03:36;5.50;65.30
20574;DHT22;10445;50.216;7.912;2022-11-14T00:06:25;5.40;65.90
20574;DHT22;10445;50.216;7.912;2022-11-14T00:09:14;5.40;66.50
20574;DHT22;10445;50.216;7.912;2022-11-14T00:12:02;5.40;67.60
20574;DHT22;10445;50.216;7.912;2022-11-14T00:14:51;5.30;69.70
20574;DHT22;10445;50.216;7.912;2022-11-14T00:17:43;5.30;68.80
20574;DHT22;10445;50.216;7.912;2022-11-14T00:20:32;5.30;69.80
20574;DHT22;10445;50.216;7.912;2022-11-14T00:23:21;5.20;68.80
20574;DHT22;10445;50.216;7.912;2022-11-14T00:26:09;5.20;68.80
20574;DHT22;10445;50.216;7.912;2022-11-14T00:28:58;5.20;71.40
20574;DHT22;10445;50.216;7.912;2022-11-14T00:31:46;5.10;72.90
20574;DHT22;10445;50.216;7.912;2022-11-14T00:34:36;5.20;73.20
20574;DHT22;10445;50.216;7.912;2022-11-14T00:37:25;5.20;74.30
20574;DHT22;10445;50.216;7.912;2022-11-14T00:40:14;5.20;74.70
20574;DHT22;10445;50.216;7.912;2022-11-14T00:43:03;5.20;75.60
20574;DHT22;10445;50.216;7.912;2022-11-14T00:45:52;5.20;75.30
20574;DHT22;10445;50.216;7.912;2022-11-14T00:48:41;5.10;74.80
20574;DHT22;10445;50.216;7.912;2022-11-14T00:51:31;5.20;76.50
20574;DHT22;10445;50.216;7.912;2022-11-14T00:54:19;5.10;74.10
20574;DHT22;10445;50.216;7.912;2022-11-14T00:57:08;5.00;74.00
20574;DHT22;10445;50.216;7.912;2022-11-14T00:59:58;4.90;74.00
20574;DHT22;10445;50.216;7.912;2022-11-14T01:02:47;4.80;74.70
20574;DHT22;10445;50.216;7.912;2022-11-14T01:05:40;4.80;75.90
20574;DHT22;10445;50.216;7.912;2022-11-14T01:08:30;4.90;79.60
20574;DHT22;10445;50.216;7.912;2022-11-14T01:11:21;4.90;78.90
20574;DHT22;10445;50.216;7.912;2022-11-14T01:14:10;5.10;78.60
20574;DHT22;10445;50.216;7.912;2022-11-14T01:16:58;5.30;77.00
20574;DHT22;10445;50.216;7.912;2022-11-14T01:19:47;5.60;72.00
20574;DHT22;10445;50.216;7.912;2022-11-14T01:22:36;5.60;70.00
20574;DHT22;10445;50.216;7.912;2022-11-14T01:25:26;5.70;69.20
20574;DHT22;10445;50.216;7.912;2022-11-14T01:28:17;5.70;67.60
20574;DHT22;10445;50.216;7.912;2022-11-14T01:31:10;5.70;69.00
20574;DHT22;10445;50.216;7.912;2022-11-14T01:33:59;5.70;69.30
20574;DHT22;10445;50.216;7.912;2022-11-14T01:36:47;5.70;69.30
20574;DHT22;10445;50.216;7.912;2022-11-14T01:39:36;5.70;69.10
20574;DHT22;10445;50.216;7.912;2022-11-14T01:42:26;5.60;69.90
20574;DHT22;10445;50.216;7.912;2022-11-14T01:45:44;5.60;70.20
20574;DHT22;10445;50.216;7.912;2022-11-14T01:48:37;5.50;71.00
20574;DHT22;10445;50.216;7.912;2022-11-14T01:51:31;5.40;72.50
20574;DHT22;10445;50.216;7.912;2022-11-14T01:54:24;5.30;73.60
20574;DHT22;10445;50.216;7.912;2022-11-14T01:57:17;5.30;75.50
20574;DHT22;10445;50.216;7.912;2022-11-14T02:00:10;5.30;74.90
20574;DHT22;10445;50.216;7.912;2022-11-14T02:03:00;5.30;74.90
20574;DHT22;10445;50.216;7.912;2022-11-14T02:05:49;5.30;75.20
20574;DHT22;10445;50.216;7.912;2022-11-14T02:08:39;5.20;75.20
20574;DHT22;10445;50.216;7.912;2022-11-14T02:11:30;5.20;75.90
20574;DHT22;10445;50.216;7.912;2022-11-14T02:14:20;5.20;77.40
20574;DHT22;10445;50.216;7.912;2022-11-14T02:17:10;5.10;78.00
20574;DHT22;10445;50.216;7.912;2022-11-14T02:20:25;5.10;78.50
20574;DHT22;10445;50.216;7.912;2022-11-14T02:23:24;5.00;78.30
20574;DHT22;10445;50.216;7.912;2022-11-14T02:26:16;5.00;81.50
20574;DHT22;10445;50.216;7.912;2022-11-14T02:29:07;5.00;82.60
20574;DHT22;10445;50.216;7.912;2022-11-14T02:31:56;5.00;81.20
20574;DHT22;10445;50.216;7.912;2022-11-14T02:34:44;4.90;82.80
20574;DHT22;10445;50.216;7.912;2022-11-14T02:37:35;4.90;82.70
20574;DHT22;10445;50.216;7.912;2022-11-14T02:40:23;4.80;81.30
20574;DHT22;10445;50.216;7.912;2022-11-14T02:43:12;4.70;82.80
20574;DHT22;10445;50.216;7.912;2022-11-14T02:46:01;4.70;84.40
20574;DHT22;10445;50.216;7.912;2022-11-14T02:48:52;4.70;88.60
20574;DHT22;10445;50.216;7.912;2022-11-14T02:51:40;4.70;89.90
20574;DHT22;10445;50.216;7.912;2022-11-14T02:54:30;4.60;89.90
20574;DHT22;10445;50.216;7.912;2022-11-14T02:57:19;4.70;93.10
20574;DHT22;10445;50.216;7.912;2022-11-14T03:00:08;4.60;92.90
20574;DHT22;10445;50.216;7.912;2022-11-14T03:03:01;4.60;93.60
20574;DHT22;10445;50.216;7.912;2022-11-14T03:05:50;4.60;92.50
20574;DHT22;10445;50.216;7.912;2022-11-14T03:08:39;4.60;92.70
20574;DHT22;10445;50.216;7.912;2022-11-14T03:11:29;4.70;91.70
20574;DHT22;10445;50.216;7.912;2022-11-14T03:14:18;4.70;91.00
20574;DHT22;10445;50.216;7.912;2022-11-14T03:17:07;4.70;90.10
20574;DHT22;10445;50.216;7.912;2022-11-14T03:19:55;4.70;90.50
20574;DHT22;10445;50.216;7.912;2022-11-14T03:22:44;4.60;90.30
20574;DHT22;10445;50.216;7.912;2022-11-14T03:25:33;4.60;90.70
20574;DHT22;10445;50.216;7.912;2022-11-14T03:28:23;4.60;91.00
20574;DHT22;10445;50.216;7.912;2022-11-14T03:31:12;4.50;90.90
20574;DHT22;10445;50.216;7.912;2022-11-14T03:34:01;4.50;91.20
20574;DHT22;10445;50.216;7.912;2022-11-14T03:36:50;4.40;90.70
20574;DHT22;10445;50.216;7.912;2022-11-14T03:39:39;4.30;91.30
20574;DHT22;10445;50.216;7.912;2022-11-14T03:42:27;4.30;91.40
20574;DHT22;10445;50.216;7.912;2022-11-14T03:45:17;4.20;91.20
20574;DHT22;10445;50.216;7.912;2022-11-14T03:48:06;4.10;91.80
20574;DHT22;10445;50.216;7.912;2022-11-14T03:50:55;4.00;92.40
20574;DHT22;10445;50.216;7.912;2022-11-14T03:53:43;4.00;93.80
20574;DHT22;10445;50.216;7.912;2022-11-14T03:56:32;4.00;94.20
20574;DHT22;10445;50.216;7.912;2022-11-14T03:59:21;4.10;94.30
20574;DHT22;10445;50.216;7.912;2022-11-14T04:02:11;4.10;93.90
20574;DHT22;10445;50.216;7.912;2022-11-14T04:05:00;4.00;92.80
20574;DHT22;10445;50.216;7.912;2022-11-14T04:07:49;4.00;92.30
20574;DHT22;10445;50.216;7.912;2022-11-14T04:10:38;4.00;91.80
20574;DHT22;10445;50.216;7.912;2022-11-14T04:13:27;3.90;91.90
20574;DHT22;10445;50.216;7.912;2022-11-14T04:16:16;4.00;92.80
20574;DHT22;10445;50.216;7.912;2022-11-14T04:19:06;4.00;93.50
20574;DHT22;10445;50.216;7.912;2022-11-14T04:21:54;4.10;94.20
20574;DHT22;10445;50.216;7.912;2022-11-14T04:24:43;4.20;94.60
20574;DHT22;10445;50.216;7.912;2022-11-14T04:27:32;4.30;94.40
20574;DHT22;10445;50.216;7.912;2022-11-14T04:30:20;4.40;94.00
20574;DHT22;10445;50.216;7.912;2022-11-14T04:33:09;4.50;93.60
20574;DHT22;10445;50.216;7.912;2022-11-14T04:35:59;4.50;92.70
20574;DHT22;10445;50.216;7.912;2022-11-14T04:38:48;4.60;92.40
20574;DHT22;10445;50.216;7.912;2022-11-14T04:41:36;4.60;91.30
20574;DHT22;10445;50.216;7.912;2022-11-14T04:44:25;4.60;91.50
20574;DHT22;10445;50.216;7.912;2022-11-14T04:47:14;4.70;90.70
20574;DHT22;10445;50.216;7.912;2022-11-14T04:50:03;4.60;90.70
20574;DHT22;10445;50.216;7.912;2022-11-14T04:52:53;4.60;90.30
20574;DHT22;10445;50.216;7.912;2022-11-14T04:55:43;4.70;89.80
20574;DHT22;10445;50.216;7.912;2022-11-14T04:58:32;4.70;89.10
20574;DHT22;10445;50.216;7.912;2022-11-14T05:01:21;4.70;88.70
20574;DHT22;10445;50.216;7.912;2022-11-14T05:04:10;4.70;88.80
20574;DHT22;10445;50.216;7.912;2022-11-14T05:06:59;4.70;88.70
20574;DHT22;10445;50.216;7.912;2022-11-14T05:09:49;4.70;89.30
20574;DHT22;10445;50.216;7.912;2022-11-14T05:12:37;4.70;88.80
20574;DHT22;10445;50.216;7.912;2022-11-14T05:15:26;4.70;89.20
20574;DHT22;10445;50.216;7.912;2022-11-14T05:18:15;4.60;89.70
20574;DHT22;10445;50.216;7.912;2022-11-14T05:21:04;4.60;90.70
20574;DHT22;10445;50.216;7.912;2022-11-14T05:23:53;4.60;91.10
20574;DHT22;10445;50.216;7.912;2022-11-14T05:26:43;4.60;92.70
20574;DHT22;10445;50.216;7.912;2022-11-14T05:29:32;4.60;93.70
20574;DHT22;10445;50.216;7.912;2022-11-14T05:32:20;4.60;93.50
20574;DHT22;10445;50.216;7.912;2022-11-14T05:35:09;4.60;94.60
20574;DHT22;10445;50.216;7.912;2022-11-14T05:37:59;4.50;95.10
20574;DHT22;10445;50.216;7.912;2022-11-14T05:40:48;4.50;96.20
20574;DHT22;10445;50.216;7.912;2022-11-14T05:43:38;4.50;97.00
20574;DHT22;10445;50.216;7.912;2022-11-14T05:46:27;4.50;97.70
20574;DHT22;10445;50.216;7.912;2022-11-14T05:49:16;4.40;98.60
20574;DHT22;10445;50.216;7.912;2022-11-14T05:52:08;4.40;99.40
20574;DHT22;10445;50.216;7.912;2022-11-14T05:54:57;4.40;99.90
20574;DHT22;10445;50.216;7.912;2022-11-14T05:57:45;4.40;99.90
20574;DHT22;10445;50.216;7.912;2022-11-14T06:00:35;4.40;99.90
20574;DHT22;10445;50.216;7.912;2022-11-14T06:03:39;4.40;99.90
20574;DHT22;10445;50.216;7.912;2022-11-14T06:06:27;4.40;99.90
20574;DHT22;10445;50.216;7.912;2022-11-14T06:09:17;4.40;99.90
20574;DHT22;10445;50.216;7.912;2022-11-14T06:12:06;4.50;99.90
20574;DHT22;10445;50.216;7.912;2022-11-14T06:14:54;4.40;99.90
20574;DHT22;10445;50.216;7.912;2022-11-14T06:17:45;4.50;99.90
20574;DHT22;10445;50.216;7.912;2022-11-14T06:20:33;4.40;99.90
20574;DHT22;10445;50.216;7.912;2022-11-14T06:23:23;4.40;99.90
20574;DHT22;10445;50.216;7.912;2022-11-14T06:26:15;4.40;99.90
20574;DHT22;10445;50.216;7.912;2022-11-14T06:29:08;4.40;99.90
20574;DHT22;10445;50.216;7.912;2022-11-14T06:31:57;4.30;99.90
20574;DHT22;10445;50.216;7.912;2022-11-14T06:34:47;4.30;99.90
20574;DHT22;10445;50.216;7.912;2022-11-14T06:37:36;4.30;99.90
20574;DHT22;10445;50.216;7.912;2022-11-14T06:40:24;4.40;99.90
20574;DHT22;10445;50.216;7.912;2022-11-14T06:43:13;4.40;99.90
20574;DHT22;10445;50.216;7.912;2022-11-14T06:46:03;4.40;99.90
20574;DHT22;10445;50.216;7.912;2022-11-14T06:48:52;4.40;99.90
20574;DHT22;10445;50.216;7.912;2022-11-14T06:51:42;4.40;99.90
20574;DHT22;10445;50.216;7.912;2022-11-14T06:54:30;4.50;99.90
20574;DHT22;10445;50.216;7.912;2022-11-14T06:57:19;4.50;99.90
20574;DHT22;10445;50.216;7.912;2022-11-14T07:00:08;4.50;99.90
20574;DHT22;10445;50.216;7.912;2022-11-14T07:02:57;4.50;99.90
20574;DHT22;10445;50.216;7.912;2022-11-14T07:05:46;4.50;99.90
20574;DHT22;10445;50.216;7.912;2022-11-14T07:08:36;4.50;99.90
20574;DHT22;10445;50.216;7.912;2022-11-14T07:11:26;4.50;99.90
20574;DHT22;10445;50.216;7.912;2022-11-14T07:14:15;4.60;99.90
20574;DHT22;10445;50.216;7.912;2022-11-14T07:17:04;4.60;99.90
20574;DHT22;10445;50.216;7.912;2022-11-14T07:19:53;4.60;99.90
20574;DHT22;10445;50.216;7.912;2022-11-14T07:22:41;4.60;99.90
20574;DHT22;10445;50.216;7.912;2022-11-14T07:25:33;4.60;99.90
20574;DHT22;10445;50.216;7.912;2022-11-14T07:28:22;4.60;99.90
20574;DHT22;10445;50.216;7.912;2022-11-14T07:31:12;4.70;99.90
20574;DHT22;10445;50.216;7.912;2022-11-14T07:34:01;4.70;99.90
20574;DHT22;10445;50.216;7.912;2022-11-14T07:36:52;4.70;99.90
20574;DHT22;10445;50.216;7.912;2022-11-14T07:39:41;4.80;99.90
20574;DHT22;10445;50.216;7.912;2022-11-14T07:42:31;4.80;99.90
20574;DHT22;10445;50.216;7.912;2022-11-14T07:45:20;5.00;99.90
20574;DHT22;10445;50.216;7.912;2022-11-14T07:48:08;4.90;99.90
20574;DHT22;10445;50.216;7.912;2022-11-14T07:50:58;4.90;99.90
20574;DHT22;10445;50.216;7.912;2022-11-14T07:53:47;5.00;99.90
20574;DHT22;10445;50.216;7.912;2022-11-14T07:56:36;4.90;99.90
20574;DHT22;10445;50.216;7.912;2022-11-14T07:59:26;5.00;99.90
20574;DHT22;10445;50.216;7.912;2022-11-14T08:02:15;5.10;99.90
20574;DHT22;10445;50.216;7.912;2022-11-14T08:05:04;5.10;99.90
20574;DHT22;10445;50.216;7.912;2022-11-14T08:07:52;5.20;99.90
20574;DHT22;10445;50.216;7.912;2022-11-14T08:10:41;5.20;99.90
20574;DHT22;10445;50.216;7.912;2022-11-14T08:13:31;5.10;99.90
20574;DHT22;10445;50.216;7.912;2022-11-14T08:16:21;5.20;99.90
20574;DHT22;10445;50.216;7.912;2022-11-14T08:19:10;5.20;99.90
20574;DHT22;10445;50.216;7.912;2022-11-14T08:21:58;5.20;99.90
20574;DHT22;10445;50.216;7.912;2022-11-14T08:24:47;5.20;99.90
20574;DHT22;10445;50.216;7.912;2022-11-14T08:27:36;5.20;99.90
20574;DHT22;10445;50.216;7.912;2022-11-14T08:30:25;5.30;99.90
20574;DHT22;10445;50.216;7.912;2022-11-14T08:33:15;5.40;99.90
20574;DHT22;10445;50.216;7.912;2022-11-14T08:36:05;5.50;99.90
20574;DHT22;10445;50.216;7.912;2022-11-14T08:38:54;5.50;99.50
20574;DHT22;10445;50.216;7.912;2022-11-14T08:41:48;5.50;99.00
20574;DHT22;10445;50.216;7.912;2022-11-14T08:44:36;5.50;99.90
20574;DHT22;10445;50.216;7.912;2022-11-14T08:47:25;5.50;99.00
20574;DHT22;10445;50.216;7.912;2022-11-14T08:50:15;5.60;99.90
20574;DHT22;10445;50.216;7.912;2022-11-14T08:53:04;5.60;99.90
20574;DHT22;10445;50.216;7.912;2022-11-14T08:55:52;5.60;99.90
20574;DHT22;10445;50.216;7.912;2022-11-14T08:58:41;5.60;99.90
20574;DHT22;10445;50.216;7.912;2022-11-14T09:01:30;5.50;99.80
20574;DHT22;10445;50.216;7.912;2022-11-14T09:04:19;5.50;99.90
20574;DHT22;10445;50.216;7.912;2022-11-14T09:07:09;5.50;99.90
20574;DHT22;10445;50.216;7.912;2022-11-14T09:09:58;5.50;99.90
20574;DHT22;10445;50.216;7.912;2022-11-14T09:12:46;5.30;99.90
20574;DHT22;10445;50.216;7.912;2022-11-14T09:15:35;5.30;99.90
20574;DHT22;10445;50.216;7.912;2022-11-14T09:18:24;5.20;99.90
20574;DHT22;10445;50.216;7.912;2022-11-14T09:21:13;5.00;99.90
20574;DHT22;10445;50.216;7.912;2022-11-14T09:24:03;5.00;99.90
20574;DHT22;10445;50.216;7.912;2022-11-14T09:26:52;5.10;99.90
20574;DHT22;10445;50.216;7.912;2022-11-14T09:29:43;5.20;99.90
20574;DHT22;10445;50.216;7.912;2022-11-14T09:32:32;5.20;99.90
20574;DHT22;10445;50.216;7.912;2022-11-14T09:35:20;5.20;99.90
20574;DHT22;10445;50.216;7.912;2022-11-14T09:38:10;5.20;99.90
20574;DHT22;10445;50.216;7.912;2022-11-14T09:41:09;5.40;99.90
20574;DHT22;10445;50.216;7.912;2022-11-14T09:44:19;5.40;99.90
20574;DHT22;10445;50.216;7.912;2022-11-14T09:47:15;5.40;99.90
20574;DHT22;10445;50.216;7.912;2022-11-14T09:50:11;5.50;99.90
20574;DHT22;10445;50.216;7.912;2022-11-14T09:53:04;5.40;99.10
20574;DHT22;10445;50.216;7.912;2022-11-14T09:55:54;5.30;98.60
20574;DHT22;10445;50.216;7.912;2022-11-14T09:58:44;5.30;99.70
20574;DHT22;10445;50.216;7.912;2022-11-14T10:01:42;5.20;99.90
20574;DHT22;10445;50.216;7.912;2022-11-14T10:04:45;5.30;99.90
20574;DHT22;10445;50.216;7.912;2022-11-14T10:07:45;5.20;99.90
20574;DHT22;10445;50.216;7.912;2022-11-14T10:10:49;5.20;99.90
20574;DHT22;10445;50.216;7.912;2022-11-14T10:14:00;5.20;99.90
20574;DHT22;10445;50.216;7.912;2022-11-14T10:16:58;5.30;99.90
20574;DHT22;10445;50.216;7.912;2022-11-14T10:20:02;5.20;99.90
20574;DHT22;10445;50.216;7.912;2022-11-14T10:26:17;5.20;99.90
20574;DHT22;10445;50.216;7.912;2022-11-14T10:29:38;5.20;99.90
20574;DHT22;10445;50.216;7.912;2022-11-14T10:35:47;5.50;99.90
20574;DHT22;10445;50.216;7.912;2022-11-14T10:38:41;5.70;99.90
20574;DHT22;10445;50.216;7.912;2022-11-14T10:41:31;5.80;99.70
20574;DHT22;10445;50.216;7.912;2022-11-14T10:44:47;5.90;98.00
20574;DHT22;10445;50.216;7.912;2022-11-14T10:47:40;5.90;97.60
20574;DHT22;10445;50.216;7.912;2022-11-14T10:50:38;5.90;98.90
20574;DHT22;10445;50.216;7.912;2022-11-14T10:53:40;6.00;98.30
20574;DHT22;10445;50.216;7.912;2022-11-14T10:56:31;6.00;96.10
20574;DHT22;10445;50.216;7.912;2022-11-14T10:59:20;5.90;95.40
20574;DHT22;10445;50.216;7.912;2022-11-14T11:02:10;5.90;94.70
20574;DHT22;10445;50.216;7.912;2022-11-14T11:05:13;5.80;96.10
20574;DHT22;10445;50.216;7.912;2022-11-14T11:08:10;5.90;96.30
20574;DHT22;10445;50.216;7.912;2022-11-14T11:11:29;6.00;94.10
20574;DHT22;10445;50.216;7.912;2022-11-14T11:14:18;6.00;94.70
20574;DHT22;10445;50.216;7.912;2022-11-14T11:17:15;6.10;93.40
20574;DHT22;10445;50.216;7.912;2022-11-14T11:20:24;6.10;93.20
20574;DHT22;10445;50.216;7.912;2022-11-14T11:23:19;6.20;93.00
20574;DHT22;10445;50.216;7.912;2022-11-14T11:26:17;6.30;91.90
20574;DHT22;10445;50.216;7.912;2022-11-14T11:29:14;6.40;92.20
20574;DHT22;10445;50.216;7.912;2022-11-14T11:32:03;6.50;89.30
20574;DHT22;10445;50.216;7.912;2022-11-14T11:34:55;6.40;88.80
20574;DHT22;10445;50.216;7.912;2022-11-14T11:37:47;6.50;88.10
20574;DHT22;10445;50.216;7.912;2022-11-14T11:40:42;6.40;87.00
20574;DHT22;10445;50.216;7.912;2022-11-14T11:43:35;6.30;88.50
20574;DHT22;10445;50.216;7.912;2022-11-14T11:46:31;6.30;90.20
20574;DHT22;10445;50.216;7.912;2022-11-14T11:49:30;6.40;90.20
20574;DHT22;10445;50.216;7.912;2022-11-14T11:52:29;6.40;87.90
20574;DHT22;10445;50.216;7.912;2022-11-14T11:55:22;6.50;88.20
20574;DHT22;10445;50.216;7.912;2022-11-14T11:58:18;6.50;87.60
20574;DHT22;10445;50.216;7.912;2022-11-14T12:01:09;6.40;88.30
20574;DHT22;10445;50.216;7.912;2022-11-14T12:03:59;6.40;88.60
20574;DHT22;10445;50.216;7.912;2022-11-14T12:06:54;6.40;90.60
20574;DHT22;10445;50.216;7.912;2022-11-14T12:09:49;6.40;91.30
20574;DHT22;10445;50.216;7.912;2022-11-14T12:16:55;6.40;92.90
20574;DHT22;10445;50.216;7.912;2022-11-14T12:20:11;6.50;93.30
20574;DHT22;10445;50.216;7.912;2022-11-14T12:30:01;6.70;90.60
20574;DHT22;10445;50.216;7.912;2022-11-14T12:32:53;6.70;91.60
20574;DHT22;10445;50.216;7.912;2022-11-14T12:35:49;6.70;92.70
20574;DHT22;10445;50.216;7.912;2022-11-14T12:38:44;6.70;93.50
20574;DHT22;10445;50.216;7.912;2022-11-14T12:41:36;6.80;93.00
20574;DHT22;10445;50.216;7.912;2022-11-14T12:44:34;6.80;91.30
20574;DHT22;10445;50.216;7.912;2022-11-14T12:47:24;6.90;90.90
20574;DHT22;10445;50.216;7.912;2022-11-14T12:50:38;6.90;90.30
20574;DHT22;10445;50.216;7.912;2022-11-14T12:53:38;6.90;91.40
20574;DHT22;10445;50.216;7.912;2022-11-14T12:56:53;6.90;90.70
20574;DHT22;10445;50.216;7.912;2022-11-14T12:59:51;6.90;91.40
20574;DHT22;10445;50.216;7.912;2022-11-14T13:03:00;6.90;92.80
20574;DHT22;10445;50.216;7.912;2022-11-14T13:05:56;6.90;92.90
20574;DHT22;10445;50.216;7.912;2022-11-14T13:09:08;6.90;90.90
20574;DHT22;10445;50.216;7.912;2022-11-14T13:12:24;6.90;91.20
20574;DHT22;10445;50.216;7.912;2022-11-14T13:15:33;7.00;91.10
20574;DHT22;10445;50.216;7.912;2022-11-14T13:18:53;7.00;91.80
20574;DHT22;10445;50.216;7.912;2022-11-14T13:22:39;7.10;90.00
20574;DHT22;10445;50.216;7.912;2022-11-14T13:25:28;7.10;90.50
20574;DHT22;10445;50.216;7.912;2022-11-14T13:28:46;7.10;90.90
20574;DHT22;10445;50.216;7.912;2022-11-14T13:31:47;7.20;91.00
20574;DHT22;10445;50.216;7.912;2022-11-14T13:34:39;7.10;90.60
20574;DHT22;10445;50.216;7.912;2022-11-14T13:37:47;7.10;90.80
20574;DHT22;10445;50.216;7.912;2022-11-14T13:40:45;7.20;91.30
20574;DHT22;10445;50.216;7.912;2022-11-14T13:43:48;7.20;90.70
20574;DHT22;10445;50.216;7.912;2022-11-14T13:46:59;7.20;91.40
20574;DHT22;10445;50.216;7.912;2022-11-14T13:49:58;7.30;90.30
20574;DHT22;10445;50.216;7.912;2022-11-14T13:52:48;7.30;90.50
20574;DHT22;10445;50.216;7.912;2022-11-14T13:55:48;7.40;89.90
20574;DHT22;10445;50.216;7.912;2022-11-14T13:58:55;7.40;89.40
20574;DHT22;10445;50.216;7.912;2022-11-14T14:01:56;7.40;90.30
20574;DHT22;10445;50.216;7.912;2022-11-14T14:04:57;7.40;90.70
20574;DHT22;10445;50.216;7.912;2022-11-14T14:07:57;7.40;90.50
20574;DHT22;10445;50.216;7.912;2022-11-14T14:10:58;7.50;90.80
20574;DHT22;10445;50.216;7.912;2022-11-14T14:13:58;7.60;90.50
20574;DHT22;10445;50.216;7.912;2022-11-14T14:16:52;7.50;89.00
20574;DHT22;10445;50.216;7.912;2022-11-14T14:19:53;7.40;90.70
20574;DHT22;10445;50.216;7.912;2022-11-14T14:22:52;7.40;91.20
20574;DHT22;10445;50.216;7.912;2022-11-14T14:25:50;7.40;92.80
20574;DHT22;10445;50.216;7.912;2022-11-14T14:28:49;7.40;91.60
20574;DHT22;10445;50.216;7.912;2022-11-14T14:31:43;7.30;92.80
20574;DHT22;10445;50.216;7.912;2022-11-14T14:34:32;7.30;91.60
20574;DHT22;10445;50.216;7.912;2022-11-14T14:37:23;7.30;93.00
20574;DHT22;10445;50.216;7.912;2022-11-14T14:40:22;7.30;92.50
20574;DHT22;10445;50.216;7.912;2022-11-14T14:43:22;7.30;92.70
20574;DHT22;10445;50.216;7.912;2022-11-14T14:46:12;7.30;93.40
20574;DHT22;10445;50.216;7.912;2022-11-14T14:49:03;7.30;93.30
20574;DHT22;10445;50.216;7.912;2022-11-14T14:51:52;7.20;94.20
20574;DHT22;10445;50.216;7.912;2022-11-14T14:54:53;7.20;94.80
20574;DHT22;10445;50.216;7.912;2022-11-14T14:57:43;7.20;95.20
20574;DHT22;10445;50.216;7.912;2022-11-14T15:00:32;7.30;94.10
20574;DHT22;10445;50.216;7.912;2022-11-14T15:03:21;7.30;94.60
20574;DHT22;10445;50.216;7.912;2022-11-14T15:06:24;7.30;94.70
20574;DHT22;10445;50.216;7.912;2022-11-14T15:09:17;7.30;95.00
20574;DHT22;10445;50.216;7.912;2022-11-14T15:12:07;7.30;95.50
20574;DHT22;10445;50.216;7.912;2022-11-14T15:14:56;7.30;95.40
20574;DHT22;10445;50.216;7.912;2022-11-14T15:17:45;7.30;96.10
20574;DHT22;10445;50.216;7.912;2022-11-14T15:20:34;7.30;95.30
20574;DHT22;10445;50.216;7.912;2022-11-14T15:23:24;7.30;95.40
20574;DHT22;10445;50.216;7.912;2022-11-14T15:26:16;7.30;95.50
20574;DHT22;10445;50.216;7.912;2022-11-14T15:29:06;7.30;96.30
20574;DHT22;10445;50.216;7.912;2022-11-14T15:31:57;7.30;96.20
20574;DHT22;10445;50.216;7.912;2022-11-14T15:35:08;7.40;96.10
20574;DHT22;10445;50.216;7.912;2022-11-14T15:38:05;7.40;96.20
20574;DHT22;10445;50.216;7.912;2022-11-14T15:41:20;7.40;96.20
20574;DHT22;10445;50.216;7.912;2022-11-14T15:44:28;7.40;96.20
20574;DHT22;10445;50.216;7.912;2022-11-14T15:47:21;7.40;95.90
20574;DHT22;10445;50.216;7.912;2022-11-14T15:50:27;7.40;95.30
20574;DHT22;10445;50.216;7.912;2022-11-14T15:53:21;7.30;95.20
20574;DHT22;10445;50.216;7.912;2022-11-14T15:56:11;7.30;95.20
20574;DHT22;10445;50.216;7.912;2022-11-14T15:59:03;7.40;94.00
20574;DHT22;10445;50.216;7.912;2022-11-14T16:01:53;7.30;93.50
20574;DHT22;10445;50.216;7.912;2022-11-14T16:04:44;7.30;94.00
20574;DHT22;10445;50.216;7.912;2022-11-14T16:07:34;7.30;94.20
20574;DHT22;10445;50.216;7.912;2022-11-14T16:10:24;7.30;94.00
20574;DHT22;10445;50.216;7.912;2022-11-14T16:13:13;7.30;93.80
20574;DHT22;10445;50.216;7.912;2022-11-14T16:16:04;7.30;93.60
20574;DHT22;10445;50.216;7.912;2022-11-14T16:18:53;7.30;94.30
20574;DHT22;10445;50.216;7.912;2022-11-14T16:21:41;7.30;94.30
20574;DHT22;10445;50.216;7.912;2022-11-14T16:24:30;7.30;95.10
20574;DHT22;10445;50.216;7.912;2022-11-14T16:27:20;7.30;95.80
20574;DHT22;10445;50.216;7.912;2022-11-14T16:30:10;7.30;96.80
20574;DHT22;10445;50.216;7.912;2022-11-14T16:33:00;7.30;96.70
20574;DHT22;10445;50.216;7.912;2022-11-14T16:35:49;7.30;96.90
20574;DHT22;10445;50.216;7.912;2022-11-14T16:38:38;7.30;96.60
20574;DHT22;10445;50.216;7.912;2022-11-14T16:41:27;7.40;96.50
20574;DHT22;10445;50.216;7.912;2022-11-14T16:44:16;7.40;96.40
20574;DHT22;10445;50.216;7.912;2022-11-14T16:47:04;7.50;96.20
20574;DHT22;10445;50.216;7.912;2022-11-14T16:49:54;7.60;96.40
20574;DHT22;10445;50.216;7.912;2022-11-14T16:52:43;7.60;96.70
20574;DHT22;10445;50.216;7.912;2022-11-14T16:55:32;7.60;97.20
20574;DHT22;10445;50.216;7.912;2022-11-14T16:58:20;7.60;97.90
20574;DHT22;10445;50.216;7.912;2022-11-14T17:01:13;7.60;98.20
20574;DHT22;10445;50.216;7.912;2022-11-14T17:04:07;7.60;98.10
20574;DHT22;10445;50.216;7.912;2022-11-14T17:06:57;7.60;98.00
20574;DHT22;10445;50.216;7.912;2022-11-14T17:09:46;7.70;98.30
20574;DHT22;10445;50.216;7.912;2022-11-14T17:12:34;7.60;98.50
20574;DHT22;10445;50.216;7.912;2022-11-14T17:15:23;7.60;98.70
20574;DHT22;10445;50.216;7.912;2022-11-14T17:18:12;7.60;99.60
20574;DHT22;10445;50.216;7.912;2022-11-14T17:21:04;7.60;99.80
20574;DHT22;10445;50.216;7.912;2022-11-14T17:23:54;7.60;99.70
20574;DHT22;10445;50.216;7.912;2022-11-14T17:26:43;7.50;99.90
20574;DHT22;10445;50.216;7.912;2022-11-14T17:29:32;7.50;99.90
20574;DHT22;10445;50.216;7.912;2022-11-14T17:32:20;7.60;99.90
20574;DHT22;10445;50.216;7.912;2022-11-14T17:35:09;7.50;99.90
20574;DHT22;10445;50.216;7.912;2022-11-14T17:37:58;7.60;99.90
20574;DHT22;10445;50.216;7.912;2022-11-14T17:40:48;7.60;99.90
20574;DHT22;10445;50.216;7.912;2022-11-14T17:43:36;7.70;99.90
20574;DHT22;10445;50.216;7.912;2022-11-14T17:46:27;7.70;99.90
20574;DHT22;10445;50.216;7.912;2022-11-14T17:49:16;7.70;99.90
20574;DHT22;10445;50.216;7.912;2022-11-14T17:52:04;7.80;99.90
20574;DHT22;10445;50.216;7.912;2022-11-14T17:54:53;7.80;99.90
20574;DHT22;10445;50.216;7.912;2022-11-14T17:57:43;7.80;99.90
20574;DHT22;10445;50.216;7.912;2022-11-14T18:00:32;7.90;99.90
20574;DHT22;10445;50.216;7.912;2022-11-14T18:03:21;7.90;99.90
20574;DHT22;10445;50.216;7.912;2022-11-14T18:06:11;7.80;99.90
20574;DHT22;10445;50.216;7.912;2022-11-14T18:09:00;7.90;99.90
20574;DHT22;10445;50.216;7.912;2022-11-14T18:11:51;7.90;99.90
20574;DHT22;10445;50.216;7.912;2022-11-14T18:14:41;8.00;99.90
20574;DHT22;10445;50.216;7.912;2022-11-14T18:17:29;8.00;99.90
20574;DHT22;10445;50.216;7.912;2022-11-14T18:20:18;8.00;99.90
20574;DHT22;10445;50.216;7.912;2022-11-14T18:23:07;8.10;99.90
20574;DHT22;10445;50.216;7.912;2022-11-14T18:25:56;8.10;99.90
20574;DHT22;10445;50.216;7.912;2022-11-14T18:28:44;8.10;99.90
20574;DHT22;10445;50.216;7.912;2022-11-14T18:31:34;8.20;99.90
20574;DHT22;10445;50.216;7.912;2022-11-14T18:34:23;8.20;99.90
20574;DHT22;10445;50.216;7.912;2022-11-14T18:37:12;8.30;99.90
20574;DHT22;10445;50.216;7.912;2022-11-14T18:40:00;8.30;99.90
20574;DHT22;10445;50.216;7.912;2022-11-14T18:42:49;8.30;99.90